sensor_id;sensor_type;location;lat;lon;timestamp;P1;durP1;ratioP1;P2;durP2;ratioP2
11548;SDS011;61444;59.472;18.306;2023-12-20T00:00:11;5.50;;;1.10;;
11548;SDS011;61444;59.472;18.306;2023-12-20T00:02:19;9.00;;;1.10;;
11548;SDS011;61444;59.472;18.306;2023-12-20T00:04:28;7.73;;;1.37;;
11548;SDS011;61444;59.472;18.306;2023-12-20T00:06:37;6.57;;;1.60;;
11548;SDS011;61444;59.472;18.306;2023-12-20T00:08:46;5.63;;;1.33;;
11548;SDS011;61444;59.472;18.306;2023-12-20T00:10:55;9.43;;;1.80;;
11548;SDS011;61444;59.472;18.306;2023-12-20T00:13:05;4.93;;;0.80;;
11548;SDS011;61444;59.472;18.306;2023-12-20T00:15:15;6.70;;;1.37;;
11548;SDS011;61444;59.472;18.306;2023-12-20T00:17:24;6.30;;;1.10;;
11548;SDS011;61444;59.472;18.306;2023-12-20T00:19:33;5.07;;;1.17;;
11548;SDS011;61444;59.472;18.306;2023-12-20T00:21:42;8.07;;;1.27;;
11548;SDS011;61444;59.472;18.306;2023-12-20T00:23:51;5.30;;;1.10;;
11548;SDS011;61444;59.472;18.306;2023-12-20T00:26:00;6.93;;;2.13;;
11548;SDS011;61444;59.472;18.306;2023-12-20T00:28:11;8.47;;;1.27;;
11548;SDS011;61444;59.472;18.306;2023-12-20T00:30:20;3.37;;;1.43;;
11548;SDS011;61444;59.472;18.306;2023-12-20T00:32:29;5.77;;;1.37;;
11548;SDS011;61444;59.472;18.306;2023-12-20T00:34:39;4.70;;;1.30;;
11548;SDS011;61444;59.472;18.306;2023-12-20T00:36:48;5.27;;;1.07;;
11548;SDS011;61444;59.472;18.306;2023-12-20T00:38:57;6.17;;;1.40;;
11548;SDS011;61444;59.472;18.306;2023-12-20T00:41:06;6.60;;;1.13;;
11548;SDS011;61444;59.472;18.306;2023-12-20T00:43:16;9.47;;;1.40;;
11548;SDS011;61444;59.472;18.306;2023-12-20T00:45:24;6.30;;;1.40;;
11548;SDS011;61444;59.472;18.306;2023-12-20T00:47:33;7.97;;;1.50;;
11548;SDS011;61444;59.472;18.306;2023-12-20T00:49:45;9.40;;;1.27;;
11548;SDS011;61444;59.472;18.306;2023-12-20T00:51:54;8.93;;;1.40;;
11548;SDS011;61444;59.472;18.306;2023-12-20T00:54:04;6.73;;;1.60;;
11548;SDS011;61444;59.472;18.306;2023-12-20T00:56:13;5.33;;;1.23;;
11548;SDS011;61444;59.472;18.306;2023-12-20T00:58:24;4.17;;;1.17;;
11548;SDS011;61444;59.472;18.306;2023-12-20T01:00:33;5.60;;;1.20;;
11548;SDS011;61444;59.472;18.306;2023-12-20T01:02:42;7.40;;;1.33;;
11548;SDS011;61444;59.472;18.306;2023-12-20T01:04:54;7.43;;;1.43;;
11548;SDS011;61444;59.472;18.306;2023-12-20T01:09:25;4.67;;;1.40;;
11548;SDS011;61444;59.472;18.306;2023-12-20T01:11:37;5.03;;;1.20;;
11548;SDS011;61444;59.472;18.306;2023-12-20T01:13:50;5.27;;;1.40;;
11548;SDS011;61444;59.472;18.306;2023-12-20T01:20:51;5.37;;;1.10;;
11548;SDS011;61444;59.472;18.306;2023-12-20T03:04:05;8.10;;;1.37;;
11548;SDS011;61444;59.472;18.306;2023-12-20T03:06:20;9.27;;;1.67;;
11548;SDS011;61444;59.472;18.306;2023-12-20T03:09:16;6.17;;;1.50;;
11548;SDS011;61444;59.472;18.306;2023-12-20T03:12:20;11.47;;;1.67;;
11548;SDS011;61444;59.472;18.306;2023-12-20T03:15:37;4.60;;;1.23;;
11548;SDS011;61444;59.472;18.306;2023-12-20T04:08:17;6.37;;;1.10;;
11548;SDS011;61444;59.472;18.306;2023-12-20T04:10:38;10.10;;;1.67;;
11548;SDS011;61444;59.472;18.306;2023-12-20T04:12:48;2.20;;;0.80;;
11548;SDS011;61444;59.472;18.306;2023-12-20T04:15:01;4.77;;;1.20;;
11548;SDS011;61444;59.472;18.306;2023-12-20T04:17:17;7.43;;;1.80;;
11548;SDS011;61444;59.472;18.306;2023-12-20T04:19:34;9.23;;;1.60;;
11548;SDS011;61444;59.472;18.306;2023-12-20T04:21:43;10.30;;;1.50;;
11548;SDS011;61444;59.472;18.306;2023-12-20T04:23:55;12.47;;;1.70;;
11548;SDS011;61444;59.472;18.306;2023-12-20T04:26:10;9.27;;;1.43;;
11548;SDS011;61444;59.472;18.306;2023-12-20T04:28:20;6.93;;;1.70;;
11548;SDS011;61444;59.472;18.306;2023-12-20T04:30:30;8.77;;;1.60;;
11548;SDS011;61444;59.472;18.306;2023-12-20T04:32:42;8.13;;;1.47;;
11548;SDS011;61444;59.472;18.306;2023-12-20T04:34:50;5.77;;;1.17;;
11548;SDS011;61444;59.472;18.306;2023-12-20T04:36:59;11.20;;;1.27;;
11548;SDS011;61444;59.472;18.306;2023-12-20T04:39:11;7.97;;;1.87;;
11548;SDS011;61444;59.472;18.306;2023-12-20T04:41:19;10.93;;;1.57;;
11548;SDS011;61444;59.472;18.306;2023-12-20T04:43:28;12.77;;;1.70;;
11548;SDS011;61444;59.472;18.306;2023-12-20T04:45:36;7.53;;;1.60;;
11548;SDS011;61444;59.472;18.306;2023-12-20T04:47:44;14.43;;;1.67;;
11548;SDS011;61444;59.472;18.306;2023-12-20T04:49:54;9.80;;;2.00;;
11548;SDS011;61444;59.472;18.306;2023-12-20T04:52:03;10.93;;;1.70;;
11548;SDS011;61444;59.472;18.306;2023-12-20T04:54:12;7.17;;;1.37;;
11548;SDS011;61444;59.472;18.306;2023-12-20T04:56:21;5.70;;;1.17;;
11548;SDS011;61444;59.472;18.306;2023-12-20T04:58:29;8.43;;;1.50;;
11548;SDS011;61444;59.472;18.306;2023-12-20T05:00:38;8.80;;;1.67;;
11548;SDS011;61444;59.472;18.306;2023-12-20T05:02:47;11.17;;;1.70;;
11548;SDS011;61444;59.472;18.306;2023-12-20T05:04:55;8.03;;;1.50;;
11548;SDS011;61444;59.472;18.306;2023-12-20T05:07:04;5.20;;;1.27;;
11548;SDS011;61444;59.472;18.306;2023-12-20T05:09:14;9.20;;;1.60;;
11548;SDS011;61444;59.472;18.306;2023-12-20T05:11:24;11.30;;;2.10;;
11548;SDS011;61444;59.472;18.306;2023-12-20T05:13:31;13.87;;;1.77;;
11548;SDS011;61444;59.472;18.306;2023-12-20T05:15:52;8.53;;;1.83;;
11548;SDS011;61444;59.472;18.306;2023-12-20T05:18:01;7.73;;;2.23;;
11548;SDS011;61444;59.472;18.306;2023-12-20T05:20:10;5.03;;;1.77;;
11548;SDS011;61444;59.472;18.306;2023-12-20T05:22:18;9.33;;;1.83;;
11548;SDS011;61444;59.472;18.306;2023-12-20T05:24:28;8.47;;;2.30;;
11548;SDS011;61444;59.472;18.306;2023-12-20T05:26:37;9.73;;;2.10;;
11548;SDS011;61444;59.472;18.306;2023-12-20T05:28:48;6.97;;;1.93;;
11548;SDS011;61444;59.472;18.306;2023-12-20T05:30:56;6.63;;;1.80;;
11548;SDS011;61444;59.472;18.306;2023-12-20T05:33:05;8.60;;;1.60;;
11548;SDS011;61444;59.472;18.306;2023-12-20T05:35:14;12.60;;;1.97;;
11548;SDS011;61444;59.472;18.306;2023-12-20T05:37:22;9.87;;;2.33;;
11548;SDS011;61444;59.472;18.306;2023-12-20T05:39:32;7.57;;;1.83;;
11548;SDS011;61444;59.472;18.306;2023-12-20T05:41:41;11.73;;;1.77;;
11548;SDS011;61444;59.472;18.306;2023-12-20T05:43:50;6.40;;;1.73;;
11548;SDS011;61444;59.472;18.306;2023-12-20T05:45:58;9.80;;;1.30;;
11548;SDS011;61444;59.472;18.306;2023-12-20T05:48:07;8.97;;;2.63;;
11548;SDS011;61444;59.472;18.306;2023-12-20T05:50:15;8.03;;;2.60;;
11548;SDS011;61444;59.472;18.306;2023-12-20T05:52:23;7.10;;;1.70;;
11548;SDS011;61444;59.472;18.306;2023-12-20T05:54:33;7.83;;;1.87;;
11548;SDS011;61444;59.472;18.306;2023-12-20T05:56:42;5.77;;;1.33;;
11548;SDS011;61444;59.472;18.306;2023-12-20T05:58:50;5.83;;;1.60;;
11548;SDS011;61444;59.472;18.306;2023-12-20T06:00:59;4.20;;;1.50;;
11548;SDS011;61444;59.472;18.306;2023-12-20T06:03:07;9.07;;;1.90;;
11548;SDS011;61444;59.472;18.306;2023-12-20T06:05:16;8.53;;;1.47;;
11548;SDS011;61444;59.472;18.306;2023-12-20T06:07:24;10.77;;;2.20;;
11548;SDS011;61444;59.472;18.306;2023-12-20T06:09:35;3.27;;;1.20;;
11548;SDS011;61444;59.472;18.306;2023-12-20T06:11:42;6.93;;;1.50;;
11548;SDS011;61444;59.472;18.306;2023-12-20T06:13:51;9.43;;;2.53;;
11548;SDS011;61444;59.472;18.306;2023-12-20T06:15:59;6.20;;;1.73;;
11548;SDS011;61444;59.472;18.306;2023-12-20T06:18:08;7.03;;;1.37;;
11548;SDS011;61444;59.472;18.306;2023-12-20T06:20:17;7.30;;;1.50;;
11548;SDS011;61444;59.472;18.306;2023-12-20T06:22:25;8.10;;;2.10;;
11548;SDS011;61444;59.472;18.306;2023-12-20T06:24:35;6.93;;;1.73;;
11548;SDS011;61444;59.472;18.306;2023-12-20T06:26:44;8.10;;;2.20;;
11548;SDS011;61444;59.472;18.306;2023-12-20T06:28:53;8.03;;;2.30;;
11548;SDS011;61444;59.472;18.306;2023-12-20T06:31:01;10.10;;;2.40;;
11548;SDS011;61444;59.472;18.306;2023-12-20T06:33:10;13.17;;;2.30;;
11548;SDS011;61444;59.472;18.306;2023-12-20T06:35:19;7.17;;;2.30;;
11548;SDS011;61444;59.472;18.306;2023-12-20T06:37:28;9.10;;;2.57;;
11548;SDS011;61444;59.472;18.306;2023-12-20T06:39:38;10.40;;;2.40;;
11548;SDS011;61444;59.472;18.306;2023-12-20T06:41:47;9.07;;;2.27;;
11548;SDS011;61444;59.472;18.306;2023-12-20T06:43:55;9.30;;;2.47;;
11548;SDS011;61444;59.472;18.306;2023-12-20T06:46:04;8.80;;;2.60;;
11548;SDS011;61444;59.472;18.306;2023-12-20T06:48:13;7.23;;;2.23;;
11548;SDS011;61444;59.472;18.306;2023-12-20T06:50:22;10.00;;;2.83;;
11548;SDS011;61444;59.472;18.306;2023-12-20T06:52:31;7.23;;;2.40;;
11548;SDS011;61444;59.472;18.306;2023-12-20T06:54:41;8.60;;;2.90;;
11548;SDS011;61444;59.472;18.306;2023-12-20T06:56:49;11.00;;;3.00;;
11548;SDS011;61444;59.472;18.306;2023-12-20T06:58:58;8.13;;;2.60;;
11548;SDS011;61444;59.472;18.306;2023-12-20T07:01:10;8.80;;;2.93;;
11548;SDS011;61444;59.472;18.306;2023-12-20T07:03:21;7.20;;;3.00;;
11548;SDS011;61444;59.472;18.306;2023-12-20T07:05:30;9.03;;;3.10;;
11548;SDS011;61444;59.472;18.306;2023-12-20T07:07:39;14.17;;;3.20;;
11548;SDS011;61444;59.472;18.306;2023-12-20T07:09:50;8.60;;;2.87;;
11548;SDS011;61444;59.472;18.306;2023-12-20T07:11:59;8.03;;;3.20;;
11548;SDS011;61444;59.472;18.306;2023-12-20T07:14:07;10.47;;;3.47;;
11548;SDS011;61444;59.472;18.306;2023-12-20T07:16:15;12.77;;;4.23;;
11548;SDS011;61444;59.472;18.306;2023-12-20T07:18:23;10.90;;;4.07;;
11548;SDS011;61444;59.472;18.306;2023-12-20T07:20:32;10.13;;;3.93;;
11548;SDS011;61444;59.472;18.306;2023-12-20T07:22:41;8.87;;;3.67;;
11548;SDS011;61444;59.472;18.306;2023-12-20T07:24:51;17.13;;;5.07;;
11548;SDS011;61444;59.472;18.306;2023-12-20T07:27:01;10.60;;;4.03;;
11548;SDS011;61444;59.472;18.306;2023-12-20T07:29:10;11.10;;;3.67;;
11548;SDS011;61444;59.472;18.306;2023-12-20T07:31:18;10.53;;;4.03;;
11548;SDS011;61444;59.472;18.306;2023-12-20T07:33:27;20.07;;;4.50;;
11548;SDS011;61444;59.472;18.306;2023-12-20T07:35:44;12.33;;;3.80;;
11548;SDS011;61444;59.472;18.306;2023-12-20T07:37:53;8.03;;;3.97;;
11548;SDS011;61444;59.472;18.306;2023-12-20T07:40:03;17.80;;;4.23;;
11548;SDS011;61444;59.472;18.306;2023-12-20T07:42:12;18.40;;;4.27;;
11548;SDS011;61444;59.472;18.306;2023-12-20T07:44:19;21.27;;;3.47;;
11548;SDS011;61444;59.472;18.306;2023-12-20T07:46:28;13.07;;;3.90;;
11548;SDS011;61444;59.472;18.306;2023-12-20T07:48:36;18.50;;;4.27;;
11548;SDS011;61444;59.472;18.306;2023-12-20T07:50:47;23.50;;;4.67;;
11548;SDS011;61444;59.472;18.306;2023-12-20T07:52:56;14.07;;;4.50;;
11548;SDS011;61444;59.472;18.306;2023-12-20T07:55:08;12.97;;;4.40;;
11548;SDS011;61444;59.472;18.306;2023-12-20T07:57:16;22.50;;;5.00;;
11548;SDS011;61444;59.472;18.306;2023-12-20T07:59:25;17.53;;;4.87;;
11548;SDS011;61444;59.472;18.306;2023-12-20T08:01:38;28.47;;;5.50;;
11548;SDS011;61444;59.472;18.306;2023-12-20T08:03:48;18.27;;;5.97;;
11548;SDS011;61444;59.472;18.306;2023-12-20T08:05:57;27.23;;;5.87;;
11548;SDS011;61444;59.472;18.306;2023-12-20T08:08:07;17.50;;;6.17;;
11548;SDS011;61444;59.472;18.306;2023-12-20T08:10:17;13.60;;;4.77;;
11548;SDS011;61444;59.472;18.306;2023-12-20T08:12:26;18.33;;;5.07;;
11548;SDS011;61444;59.472;18.306;2023-12-20T08:14:35;26.97;;;6.37;;
11548;SDS011;61444;59.472;18.306;2023-12-20T08:16:43;20.40;;;5.63;;
11548;SDS011;61444;59.472;18.306;2023-12-20T08:18:52;25.27;;;6.67;;
11548;SDS011;61444;59.472;18.306;2023-12-20T08:21:00;15.53;;;6.67;;
11548;SDS011;61444;59.472;18.306;2023-12-20T08:23:09;18.30;;;6.53;;
11548;SDS011;61444;59.472;18.306;2023-12-20T08:25:19;35.23;;;9.30;;
11548;SDS011;61444;59.472;18.306;2023-12-20T08:27:28;31.17;;;8.50;;
11548;SDS011;61444;59.472;18.306;2023-12-20T08:29:39;27.93;;;8.43;;
11548;SDS011;61444;59.472;18.306;2023-12-20T08:31:51;23.17;;;7.50;;
11548;SDS011;61444;59.472;18.306;2023-12-20T08:34:00;22.80;;;7.93;;
11548;SDS011;61444;59.472;18.306;2023-12-20T08:36:12;24.80;;;8.13;;
11548;SDS011;61444;59.472;18.306;2023-12-20T08:38:20;25.40;;;8.23;;
11548;SDS011;61444;59.472;18.306;2023-12-20T08:40:30;21.83;;;7.77;;
11548;SDS011;61444;59.472;18.306;2023-12-20T08:42:39;26.07;;;8.20;;
11548;SDS011;61444;59.472;18.306;2023-12-20T08:44:47;21.37;;;9.10;;
11548;SDS011;61444;59.472;18.306;2023-12-20T08:46:56;25.00;;;9.00;;
11548;SDS011;61444;59.472;18.306;2023-12-20T08:49:04;20.83;;;8.33;;
11548;SDS011;61444;59.472;18.306;2023-12-20T08:51:14;26.50;;;8.10;;
11548;SDS011;61444;59.472;18.306;2023-12-20T08:53:22;21.47;;;7.87;;
11548;SDS011;61444;59.472;18.306;2023-12-20T08:55:33;17.97;;;7.83;;
11548;SDS011;61444;59.472;18.306;2023-12-20T08:57:41;20.00;;;7.77;;
11548;SDS011;61444;59.472;18.306;2023-12-20T08:59:50;17.63;;;7.17;;
11548;SDS011;61444;59.472;18.306;2023-12-20T09:01:59;17.20;;;6.63;;
11548;SDS011;61444;59.472;18.306;2023-12-20T09:04:08;21.10;;;8.53;;
11548;SDS011;61444;59.472;18.306;2023-12-20T09:06:17;28.70;;;8.93;;
11548;SDS011;61444;59.472;18.306;2023-12-20T09:08:26;26.80;;;8.50;;
11548;SDS011;61444;59.472;18.306;2023-12-20T09:10:36;23.77;;;9.03;;
11548;SDS011;61444;59.472;18.306;2023-12-20T09:12:52;24.43;;;8.40;;
11548;SDS011;61444;59.472;18.306;2023-12-20T09:15:04;23.10;;;8.70;;
11548;SDS011;61444;59.472;18.306;2023-12-20T09:17:17;29.07;;;9.50;;
11548;SDS011;61444;59.472;18.306;2023-12-20T09:27:33;27.17;;;8.90;;
11548;SDS011;61444;59.472;18.306;2023-12-20T09:29:41;31.60;;;9.23;;
11548;SDS011;61444;59.472;18.306;2023-12-20T09:31:50;29.17;;;8.93;;
11548;SDS011;61444;59.472;18.306;2023-12-20T09:33:59;30.00;;;9.23;;
11548;SDS011;61444;59.472;18.306;2023-12-20T09:36:09;30.07;;;9.23;;
11548;SDS011;61444;59.472;18.306;2023-12-20T09:38:18;30.47;;;9.93;;
11548;SDS011;61444;59.472;18.306;2023-12-20T09:40:27;25.50;;;9.13;;
11548;SDS011;61444;59.472;18.306;2023-12-20T09:42:38;28.63;;;8.73;;
11548;SDS011;61444;59.472;18.306;2023-12-20T09:44:46;25.90;;;9.70;;
11548;SDS011;61444;59.472;18.306;2023-12-20T09:46:56;24.97;;;8.87;;
11548;SDS011;61444;59.472;18.306;2023-12-20T09:49:05;22.50;;;9.07;;
11548;SDS011;61444;59.472;18.306;2023-12-20T09:51:46;18.10;;;6.37;;
11548;SDS011;61444;59.472;18.306;2023-12-20T10:00:00;13.27;;;5.20;;
11548;SDS011;61444;59.472;18.306;2023-12-20T10:02:11;23.97;;;6.67;;
11548;SDS011;61444;59.472;18.306;2023-12-20T10:04:22;20.33;;;6.60;;
11548;SDS011;61444;59.472;18.306;2023-12-20T10:06:36;17.03;;;6.40;;
11548;SDS011;61444;59.472;18.306;2023-12-20T10:08:54;16.37;;;6.80;;
11548;SDS011;61444;59.472;18.306;2023-12-20T10:11:37;14.20;;;6.10;;
11548;SDS011;61444;59.472;18.306;2023-12-20T10:14:16;16.57;;;5.60;;
11548;SDS011;61444;59.472;18.306;2023-12-20T10:17:08;14.73;;;6.23;;
11548;SDS011;61444;59.472;18.306;2023-12-20T10:19:40;16.80;;;5.73;;
11548;SDS011;61444;59.472;18.306;2023-12-20T10:22:11;14.67;;;6.37;;
11548;SDS011;61444;59.472;18.306;2023-12-20T10:24:20;18.80;;;6.57;;
11548;SDS011;61444;59.472;18.306;2023-12-20T10:26:30;20.10;;;7.00;;
11548;SDS011;61444;59.472;18.306;2023-12-20T10:28:39;16.13;;;6.97;;
11548;SDS011;61444;59.472;18.306;2023-12-20T10:30:48;21.80;;;7.33;;
11548;SDS011;61444;59.472;18.306;2023-12-20T10:32:59;15.30;;;6.23;;
11548;SDS011;61444;59.472;18.306;2023-12-20T10:35:08;17.67;;;6.53;;
11548;SDS011;61444;59.472;18.306;2023-12-20T10:37:17;21.90;;;6.97;;
11548;SDS011;61444;59.472;18.306;2023-12-20T10:39:26;23.00;;;6.33;;
11548;SDS011;61444;59.472;18.306;2023-12-20T10:41:35;23.03;;;7.53;;
11548;SDS011;61444;59.472;18.306;2023-12-20T10:43:47;15.97;;;7.83;;
11548;SDS011;61444;59.472;18.306;2023-12-20T10:45:56;14.30;;;5.97;;
11548;SDS011;61444;59.472;18.306;2023-12-20T10:48:07;18.27;;;5.80;;
11548;SDS011;61444;59.472;18.306;2023-12-20T10:50:16;17.37;;;5.80;;
11548;SDS011;61444;59.472;18.306;2023-12-20T10:52:24;14.67;;;5.13;;
11548;SDS011;61444;59.472;18.306;2023-12-20T10:54:33;17.00;;;5.90;;
11548;SDS011;61444;59.472;18.306;2023-12-20T10:56:42;13.00;;;5.27;;
11548;SDS011;61444;59.472;18.306;2023-12-20T10:58:51;12.67;;;4.40;;
11548;SDS011;61444;59.472;18.306;2023-12-20T11:01:00;12.13;;;4.87;;
11548;SDS011;61444;59.472;18.306;2023-12-20T11:03:11;14.17;;;4.87;;
11548;SDS011;61444;59.472;18.306;2023-12-20T11:05:23;13.57;;;4.80;;
11548;SDS011;61444;59.472;18.306;2023-12-20T11:07:33;15.13;;;4.77;;
11548;SDS011;61444;59.472;18.306;2023-12-20T11:09:45;16.70;;;5.27;;
11548;SDS011;61444;59.472;18.306;2023-12-20T11:11:59;14.57;;;5.43;;
11548;SDS011;61444;59.472;18.306;2023-12-20T11:14:12;11.20;;;4.43;;
11548;SDS011;61444;59.472;18.306;2023-12-20T11:16:23;13.97;;;4.60;;
11548;SDS011;61444;59.472;18.306;2023-12-20T11:18:42;11.00;;;4.00;;
11548;SDS011;61444;59.472;18.306;2023-12-20T11:20:50;14.80;;;4.17;;
11548;SDS011;61444;59.472;18.306;2023-12-20T11:22:59;15.63;;;4.53;;
11548;SDS011;61444;59.472;18.306;2023-12-20T11:25:08;15.27;;;5.90;;
11548;SDS011;61444;59.472;18.306;2023-12-20T11:27:18;14.33;;;6.30;;
11548;SDS011;61444;59.472;18.306;2023-12-20T11:29:29;15.40;;;5.33;;
11548;SDS011;61444;59.472;18.306;2023-12-20T11:31:39;16.57;;;5.57;;
11548;SDS011;61444;59.472;18.306;2023-12-20T11:33:49;12.63;;;4.17;;
11548;SDS011;61444;59.472;18.306;2023-12-20T11:36:03;11.90;;;4.37;;
11548;SDS011;61444;59.472;18.306;2023-12-20T11:38:14;13.73;;;5.07;;
11548;SDS011;61444;59.472;18.306;2023-12-20T11:40:22;8.63;;;4.60;;
11548;SDS011;61444;59.472;18.306;2023-12-20T11:42:32;14.97;;;5.33;;
11548;SDS011;61444;59.472;18.306;2023-12-20T11:44:41;13.10;;;5.23;;
11548;SDS011;61444;59.472;18.306;2023-12-20T11:46:51;16.57;;;4.90;;
11548;SDS011;61444;59.472;18.306;2023-12-20T11:49:02;13.77;;;4.70;;
11548;SDS011;61444;59.472;18.306;2023-12-20T11:51:11;17.30;;;4.73;;
11548;SDS011;61444;59.472;18.306;2023-12-20T11:53:20;9.97;;;3.93;;
11548;SDS011;61444;59.472;18.306;2023-12-20T11:55:29;12.43;;;4.30;;
11548;SDS011;61444;59.472;18.306;2023-12-20T11:57:38;10.57;;;4.50;;
11548;SDS011;61444;59.472;18.306;2023-12-20T11:59:46;14.67;;;4.20;;
11548;SDS011;61444;59.472;18.306;2023-12-20T12:01:54;12.70;;;3.80;;
11548;SDS011;61444;59.472;18.306;2023-12-20T12:04:10;13.70;;;4.87;;
11548;SDS011;61444;59.472;18.306;2023-12-20T12:06:19;11.37;;;3.57;;
11548;SDS011;61444;59.472;18.306;2023-12-20T12:08:27;11.63;;;5.00;;
11548;SDS011;61444;59.472;18.306;2023-12-20T12:10:36;15.73;;;7.00;;
11548;SDS011;61444;59.472;18.306;2023-12-20T12:12:45;10.67;;;5.47;;
11548;SDS011;61444;59.472;18.306;2023-12-20T12:14:54;24.47;;;17.27;;
11548;SDS011;61444;59.472;18.306;2023-12-20T12:17:04;15.90;;;7.40;;
11548;SDS011;61444;59.472;18.306;2023-12-20T12:19:21;8.40;;;3.47;;
11548;SDS011;61444;59.472;18.306;2023-12-20T12:21:30;12.73;;;5.77;;
11548;SDS011;61444;59.472;18.306;2023-12-20T12:23:39;12.23;;;6.43;;
11548;SDS011;61444;59.472;18.306;2023-12-20T12:25:50;10.13;;;5.40;;
11548;SDS011;61444;59.472;18.306;2023-12-20T12:27:58;9.73;;;4.13;;
11548;SDS011;61444;59.472;18.306;2023-12-20T12:30:08;7.87;;;3.37;;
11548;SDS011;61444;59.472;18.306;2023-12-20T12:32:16;4.93;;;3.00;;
11548;SDS011;61444;59.472;18.306;2023-12-20T12:34:28;6.93;;;4.20;;
11548;SDS011;61444;59.472;18.306;2023-12-20T12:36:36;8.37;;;3.97;;
11548;SDS011;61444;59.472;18.306;2023-12-20T12:38:45;6.93;;;2.90;;
11548;SDS011;61444;59.472;18.306;2023-12-20T12:40:54;8.97;;;3.60;;
11548;SDS011;61444;59.472;18.306;2023-12-20T12:43:03;11.83;;;3.60;;
11548;SDS011;61444;59.472;18.306;2023-12-20T12:45:13;7.13;;;2.60;;
11548;SDS011;61444;59.472;18.306;2023-12-20T12:47:22;10.63;;;3.27;;
11548;SDS011;61444;59.472;18.306;2023-12-20T12:49:32;8.27;;;3.67;;
11548;SDS011;61444;59.472;18.306;2023-12-20T12:51:40;8.03;;;3.13;;
11548;SDS011;61444;59.472;18.306;2023-12-20T12:53:49;8.73;;;3.53;;
11548;SDS011;61444;59.472;18.306;2023-12-20T12:55:57;9.13;;;4.13;;
11548;SDS011;61444;59.472;18.306;2023-12-20T12:58:06;6.63;;;3.40;;
11548;SDS011;61444;59.472;18.306;2023-12-20T13:00:15;8.93;;;3.87;;
11548;SDS011;61444;59.472;18.306;2023-12-20T13:02:23;8.07;;;3.50;;
11548;SDS011;61444;59.472;18.306;2023-12-20T13:04:32;6.43;;;3.30;;
11548;SDS011;61444;59.472;18.306;2023-12-20T13:06:41;5.73;;;3.27;;
11548;SDS011;61444;59.472;18.306;2023-12-20T13:08:50;5.33;;;2.60;;
11548;SDS011;61444;59.472;18.306;2023-12-20T13:10:59;8.37;;;2.47;;
11548;SDS011;61444;59.472;18.306;2023-12-20T13:13:10;5.73;;;2.47;;
11548;SDS011;61444;59.472;18.306;2023-12-20T13:15:19;5.47;;;2.47;;
11548;SDS011;61444;59.472;18.306;2023-12-20T13:17:27;6.40;;;2.70;;
11548;SDS011;61444;59.472;18.306;2023-12-20T13:19:39;8.43;;;3.40;;
11548;SDS011;61444;59.472;18.306;2023-12-20T13:21:48;8.70;;;3.50;;
11548;SDS011;61444;59.472;18.306;2023-12-20T13:23:57;5.40;;;2.50;;
11548;SDS011;61444;59.472;18.306;2023-12-20T13:26:05;7.67;;;2.30;;
11548;SDS011;61444;59.472;18.306;2023-12-20T13:28:15;7.77;;;2.47;;
11548;SDS011;61444;59.472;18.306;2023-12-20T13:30:23;9.27;;;2.60;;
11548;SDS011;61444;59.472;18.306;2023-12-20T13:32:32;7.57;;;2.43;;
11548;SDS011;61444;59.472;18.306;2023-12-20T13:34:43;5.97;;;2.57;;
11548;SDS011;61444;59.472;18.306;2023-12-20T13:36:52;6.00;;;2.53;;
11548;SDS011;61444;59.472;18.306;2023-12-20T13:39:01;6.23;;;3.20;;
11548;SDS011;61444;59.472;18.306;2023-12-20T13:41:11;4.90;;;2.50;;
11548;SDS011;61444;59.472;18.306;2023-12-20T13:43:19;5.37;;;2.50;;
11548;SDS011;61444;59.472;18.306;2023-12-20T13:45:29;6.77;;;2.23;;
11548;SDS011;61444;59.472;18.306;2023-12-20T13:47:37;4.93;;;2.23;;
11548;SDS011;61444;59.472;18.306;2023-12-20T13:49:47;5.63;;;2.13;;
11548;SDS011;61444;59.472;18.306;2023-12-20T13:51:56;6.03;;;2.40;;
11548;SDS011;61444;59.472;18.306;2023-12-20T13:54:05;5.33;;;2.60;;
11548;SDS011;61444;59.472;18.306;2023-12-20T13:56:14;4.80;;;2.30;;
11548;SDS011;61444;59.472;18.306;2023-12-20T13:58:23;4.67;;;1.93;;
11548;SDS011;61444;59.472;18.306;2023-12-20T14:00:31;3.40;;;1.80;;
11548;SDS011;61444;59.472;18.306;2023-12-20T14:02:40;3.90;;;1.73;;
11548;SDS011;61444;59.472;18.306;2023-12-20T14:04:50;4.10;;;2.23;;
11548;SDS011;61444;59.472;18.306;2023-12-20T14:06:59;5.70;;;2.30;;
11548;SDS011;61444;59.472;18.306;2023-12-20T14:09:08;4.03;;;1.90;;
11548;SDS011;61444;59.472;18.306;2023-12-20T14:11:15;3.73;;;1.97;;
11548;SDS011;61444;59.472;18.306;2023-12-20T14:13:25;4.33;;;1.80;;
11548;SDS011;61444;59.472;18.306;2023-12-20T14:15:33;4.30;;;2.00;;
11548;SDS011;61444;59.472;18.306;2023-12-20T14:17:43;5.93;;;2.70;;
11548;SDS011;61444;59.472;18.306;2023-12-20T14:19:54;5.13;;;2.47;;
11548;SDS011;61444;59.472;18.306;2023-12-20T14:22:02;7.03;;;2.73;;
11548;SDS011;61444;59.472;18.306;2023-12-20T14:24:12;6.47;;;2.77;;
11548;SDS011;61444;59.472;18.306;2023-12-20T14:26:21;4.73;;;2.03;;
11548;SDS011;61444;59.472;18.306;2023-12-20T14:28:29;3.73;;;1.67;;
11548;SDS011;61444;59.472;18.306;2023-12-20T14:30:38;3.57;;;1.80;;
11548;SDS011;61444;59.472;18.306;2023-12-20T14:32:47;4.73;;;1.80;;
11548;SDS011;61444;59.472;18.306;2023-12-20T14:34:57;5.80;;;1.77;;
11548;SDS011;61444;59.472;18.306;2023-12-20T14:37:05;3.03;;;1.53;;
11548;SDS011;61444;59.472;18.306;2023-12-20T14:39:14;3.50;;;2.30;;
11548;SDS011;61444;59.472;18.306;2023-12-20T14:41:24;5.70;;;2.10;;
11548;SDS011;61444;59.472;18.306;2023-12-20T14:43:34;4.47;;;2.50;;
11548;SDS011;61444;59.472;18.306;2023-12-20T14:45:42;5.20;;;2.60;;
11548;SDS011;61444;59.472;18.306;2023-12-20T14:47:51;6.13;;;2.30;;
11548;SDS011;61444;59.472;18.306;2023-12-20T14:50:01;3.90;;;2.20;;
11548;SDS011;61444;59.472;18.306;2023-12-20T14:52:12;2.83;;;1.90;;
11548;SDS011;61444;59.472;18.306;2023-12-20T14:54:21;4.13;;;2.47;;
11548;SDS011;61444;59.472;18.306;2023-12-20T14:56:29;5.93;;;2.70;;
11548;SDS011;61444;59.472;18.306;2023-12-20T14:58:38;6.33;;;2.60;;
11548;SDS011;61444;59.472;18.306;2023-12-20T15:00:46;4.63;;;2.53;;
11548;SDS011;61444;59.472;18.306;2023-12-20T15:02:55;5.77;;;3.27;;
11548;SDS011;61444;59.472;18.306;2023-12-20T15:05:05;6.50;;;3.10;;
11548;SDS011;61444;59.472;18.306;2023-12-20T15:07:15;5.47;;;3.10;;
11548;SDS011;61444;59.472;18.306;2023-12-20T15:09:23;4.63;;;2.90;;
11548;SDS011;61444;59.472;18.306;2023-12-20T15:11:33;6.80;;;2.57;;
11548;SDS011;61444;59.472;18.306;2023-12-20T15:13:42;5.50;;;2.77;;
11548;SDS011;61444;59.472;18.306;2023-12-20T15:15:53;4.73;;;2.87;;
11548;SDS011;61444;59.472;18.306;2023-12-20T15:18:02;4.33;;;2.50;;
11548;SDS011;61444;59.472;18.306;2023-12-20T15:20:13;3.27;;;2.33;;
11548;SDS011;61444;59.472;18.306;2023-12-20T15:22:21;4.50;;;2.40;;
11548;SDS011;61444;59.472;18.306;2023-12-20T15:24:32;3.33;;;2.30;;
11548;SDS011;61444;59.472;18.306;2023-12-20T15:26:45;3.70;;;2.30;;
11548;SDS011;61444;59.472;18.306;2023-12-20T15:28:54;3.83;;;2.50;;
11548;SDS011;61444;59.472;18.306;2023-12-20T15:31:04;7.17;;;2.97;;
11548;SDS011;61444;59.472;18.306;2023-12-20T15:33:13;7.37;;;2.70;;
11548;SDS011;61444;59.472;18.306;2023-12-20T15:35:23;6.30;;;2.47;;
11548;SDS011;61444;59.472;18.306;2023-12-20T15:37:30;5.27;;;3.10;;
11548;SDS011;61444;59.472;18.306;2023-12-20T15:39:40;5.73;;;2.30;;
11548;SDS011;61444;59.472;18.306;2023-12-20T15:41:50;5.27;;;2.33;;